Aviation Digital Data Service (ADDS)

Output produced by METARs form (1817 UTC 25 January 2015)
found at http://aviationweather.gov/adds/metars/
 
KEWR 251741Z 2518/2624 30016G22KT P6SM SCT050 SCT250 
     FM252100 32011KT P6SM BKN080 
     FM260600 03010KT P6SM BKN040 
     FM261100 04013KT P6SM BKN030 
     TEMPO 2611/2615 3SM -SN BR BKN015 
     FM261500 04015G22KT 1SM -SN BR BKN007 
     FM261800 04015G22KT 3/4SM -SN BR BKN007 
     FM262300 02018G28KT 1/2SM SN FZFG VV005